Leme, Brazil
Current Conditions -  °F | °C
As of 6:00 PM on Sunday 25 Jan 2015 (Local Time) from SBYS Reporting Station
Rain Showers Rain Showers  
Wind Chill: 90°   Ceiling: Unl
Heat Index: 92°   Visibility: 6mi
Dew Point: 66°   Wind: 5mph
Humidity: 46%   Direction: 320°NW
Pressure: 29.91"   Gusts: NA
Location:  22.18°S, 47.38°W
Report Text: SBYS 252000Z 32004KT 9999 VCSH SCT035 FEW040TCU 32/19 Q1013
Loading
Personal Weather Stations






























Interactive Weather Map New forecast layout! Learn more

10-Day Weather Forecast

Advertisements
Track Severe Weather on mobile